createdAt,value
2023-03-02T00:01:27.815Z,22.27
2023-03-02T00:03:59.586Z,25.60
2023-03-02T00:06:29.716Z,24.10
2023-03-02T00:09:00.502Z,21.13
2023-03-02T00:11:29.327Z,23.80
2023-03-02T00:13:57.467Z,21.00
2023-03-02T00:16:25.684Z,21.03
2023-03-02T00:18:53.861Z,19.60
2023-03-02T00:21:24.583Z,19.60
2023-03-02T00:23:52.804Z,19.60
2023-03-02T00:26:21.546Z,20.17
2023-03-02T00:28:49.740Z,19.77
2023-03-02T00:31:18.005Z,19.47
2023-03-02T00:33:46.179Z,19.90
2023-03-02T00:36:18.047Z,20.43
2023-03-02T00:38:48.367Z,19.07
2023-03-02T00:41:17.615Z,21.00
2023-03-02T00:43:45.954Z,20.23
2023-03-02T00:46:15.721Z,21.73
2023-03-02T00:48:43.896Z,21.57
2023-03-02T00:51:12.608Z,21.30
2023-03-02T00:53:42.362Z,20.60
2023-03-02T00:56:12.404Z,20.03
2023-03-02T00:58:45.689Z,19.73
2023-03-02T01:01:15.773Z,20.13
2023-03-02T01:03:48.012Z,20.37
2023-03-02T01:06:18.141Z,19.47
2023-03-02T01:08:46.732Z,20.30
2023-03-02T01:11:17.481Z,20.40
2023-03-02T01:13:45.988Z,19.57
2023-03-02T01:16:14.853Z,20.33
2023-03-02T01:18:43.223Z,18.77
2023-03-02T01:21:13.648Z,18.87
2023-03-02T01:23:42.472Z,19.43
2023-03-02T01:26:11.106Z,19.90
2023-03-02T01:28:40.748Z,20.33
2023-03-02T01:31:08.895Z,21.30
2023-03-02T01:33:37.032Z,21.37
2023-03-02T01:36:05.538Z,19.27
2023-03-02T01:38:33.803Z,21.20
2023-03-02T01:41:01.949Z,20.20
2023-03-02T01:43:30.236Z,20.53
2023-03-02T01:46:02.798Z,20.03
2023-03-02T01:48:49.754Z,21.17
2023-03-02T01:51:27.119Z,20.17
2023-03-02T01:54:01.898Z,20.50
2023-03-02T01:56:34.585Z,20.37
2023-03-02T01:59:08.292Z,20.17
2023-03-02T02:01:40.727Z,20.23
2023-03-02T02:04:09.217Z,20.90
2023-03-02T02:06:40.576Z,21.40
2023-03-02T02:09:13.845Z,19.20
2023-03-02T02:11:44.731Z,19.60
2023-03-02T02:14:13.566Z,22.23
2023-03-02T02:16:43.343Z,20.40
2023-03-02T02:19:19.462Z,21.63
2023-03-02T02:21:47.584Z,19.53
2023-03-02T02:24:21.988Z,21.50
2023-03-02T02:26:54.221Z,20.73
2023-03-02T02:29:26.044Z,19.20
2023-03-02T02:31:59.128Z,19.37
2023-03-02T02:34:32.088Z,21.30
2023-03-02T02:37:06.785Z,21.10
2023-03-02T02:39:38.525Z,20.00
2023-03-02T02:42:13.004Z,20.53
2023-03-02T02:44:41.409Z,20.50
2023-03-02T02:47:17.261Z,20.77
2023-03-02T02:49:46.016Z,19.80
2023-03-02T02:52:16.884Z,20.20
2023-03-02T02:54:47.703Z,20.67
2023-03-02T02:57:18.752Z,20.03
2023-03-02T02:59:50.315Z,19.23
2023-03-02T03:02:21.625Z,19.80
2023-03-02T03:04:50.336Z,21.80
2023-03-02T03:07:22.438Z,21.70
2023-03-02T03:09:58.697Z,21.27
2023-03-02T03:12:30.501Z,19.63
2023-03-02T03:14:59.268Z,22.27
2023-03-02T03:17:27.419Z,21.30
2023-03-02T03:20:06.550Z,19.93
2023-03-02T03:22:38.983Z,22.00
2023-03-02T03:25:09.691Z,22.67
2023-03-02T03:27:39.223Z,19.00
2023-03-02T03:30:08.448Z,19.97
2023-03-02T03:32:37.079Z,20.13
2023-03-02T03:35:08.810Z,21.10
2023-03-02T03:37:38.218Z,20.97
2023-03-02T03:40:09.537Z,20.77
2023-03-02T03:42:40.879Z,22.07
2023-03-02T03:45:09.761Z,20.77
2023-03-02T03:47:39.179Z,19.40
2023-03-02T03:50:10.705Z,19.77
2023-03-02T03:52:39.278Z,19.30
2023-03-02T03:55:16.320Z,22.47
2023-03-02T03:57:47.894Z,20.70
2023-03-02T04:00:18.386Z,21.10
2023-03-02T04:03:02.400Z,20.57
2023-03-02T04:05:32.794Z,20.10
2023-03-02T04:08:03.489Z,20.63
2023-03-02T04:10:32.767Z,21.37
2023-03-02T04:13:03.122Z,19.40
2023-03-02T04:15:32.508Z,21.93
2023-03-02T04:18:01.549Z,21.93
2023-03-02T04:20:31.107Z,22.23
2023-03-02T04:22:59.904Z,20.80
2023-03-02T04:25:30.084Z,20.67
2023-03-02T04:28:10.901Z,20.77
2023-03-02T04:30:41.267Z,20.27
2023-03-02T04:33:09.544Z,19.80
2023-03-02T04:35:38.384Z,20.03
2023-03-02T04:38:06.598Z,19.37
2023-03-02T04:40:35.112Z,19.53
2023-03-02T04:43:03.208Z,21.50
2023-03-02T04:45:32.995Z,21.63
2023-03-02T04:48:01.086Z,21.27
2023-03-02T04:50:29.181Z,20.27
2023-03-02T04:52:57.869Z,22.80
2023-03-02T04:55:28.301Z,23.00
2023-03-02T04:57:56.393Z,23.23
2023-03-02T05:00:25.152Z,24.70
2023-03-02T05:02:54.636Z,24.37
2023-03-02T05:05:25.437Z,24.57
2023-03-02T05:07:54.374Z,24.10
2023-03-02T05:10:23.551Z,23.80
2023-03-02T05:13:02.377Z,23.30
2023-03-02T05:15:34.698Z,23.93
2023-03-02T05:18:05.790Z,25.67
2023-03-02T05:20:34.462Z,25.97
2023-03-02T05:23:05.094Z,24.70
2023-03-02T05:25:35.372Z,24.67
2023-03-02T05:28:04.057Z,24.60
2023-03-02T05:30:37.465Z,23.73
2023-03-02T05:33:07.026Z,26.37
2023-03-02T05:35:35.382Z,23.57
2023-03-02T05:38:03.670Z,24.40
2023-03-02T05:40:32.528Z,22.97
2023-03-02T05:43:00.658Z,23.77
2023-03-02T05:45:33.770Z,25.07
2023-03-02T05:48:02.342Z,25.23
2023-03-02T05:50:33.200Z,24.17
2023-03-02T05:53:02.537Z,23.50
2023-03-02T05:55:31.072Z,25.03
2023-03-02T05:57:59.185Z,22.90
2023-03-02T06:00:27.443Z,28.70
2023-03-02T06:02:55.590Z,26.67
2023-03-02T06:05:24.596Z,24.97
2023-03-02T06:07:54.092Z,25.23
2023-03-02T06:10:22.241Z,26.10
2023-03-02T06:12:50.687Z,23.80
2023-03-02T06:15:19.459Z,22.87
2023-03-02T06:17:47.595Z,23.10
2023-03-02T06:20:18.295Z,24.70
2023-03-02T06:22:48.115Z,23.80
2023-03-02T06:25:20.750Z,25.37
2023-03-02T06:27:51.607Z,24.83
2023-03-02T06:30:23.031Z,22.43
2023-03-02T06:32:51.465Z,22.20
2023-03-02T06:35:20.055Z,21.67
2023-03-02T06:37:48.234Z,22.50
2023-03-02T06:40:17.925Z,23.73
2023-03-02T06:42:45.988Z,28.00
2023-03-02T06:45:14.177Z,28.17
2023-03-02T06:47:42.336Z,27.40
2023-03-02T06:50:12.220Z,26.20
2023-03-02T06:52:40.410Z,29.60
2023-03-02T06:55:09.593Z,32.67
2023-03-02T06:57:39.112Z,36.73
2023-03-02T07:00:10.064Z,40.40
2023-03-02T07:02:39.430Z,32.83
2023-03-02T07:05:08.683Z,30.63
2023-03-02T07:07:36.864Z,29.97
2023-03-02T07:10:05.350Z,28.67
2023-03-02T07:12:33.837Z,30.40
2023-03-02T07:15:03.816Z,29.73
2023-03-02T07:17:31.879Z,31.87
2023-03-02T07:19:59.973Z,29.40
2023-03-02T07:22:28.158Z,30.10
2023-03-02T07:24:56.248Z,42.00
2023-03-02T07:27:24.381Z,49.87
2023-03-02T07:29:52.535Z,40.60
2023-03-02T07:32:22.255Z,38.33
2023-03-02T07:34:50.742Z,31.50
2023-03-02T07:37:19.001Z,31.17
2023-03-02T07:39:49.013Z,29.77
2023-03-02T07:42:17.817Z,25.90
2023-03-02T07:44:49.118Z,25.27
2023-03-02T07:47:17.350Z,26.13
2023-03-02T07:49:46.902Z,27.73
2023-03-02T07:52:15.004Z,25.67
2023-03-02T07:54:43.244Z,23.80
2023-03-02T07:57:13.729Z,25.20
2023-03-02T07:59:42.156Z,24.10
2023-03-02T08:02:13.445Z,23.80
2023-03-02T08:04:42.140Z,22.87
2023-03-02T08:07:11.932Z,25.77
2023-03-02T08:09:40.427Z,26.30
2023-03-02T08:12:08.714Z,24.67
2023-03-02T08:14:37.289Z,27.40
2023-03-02T08:17:06.136Z,26.70
2023-03-02T08:19:34.855Z,26.70
2023-03-02T08:22:03.604Z,27.47
2023-03-02T08:24:33.387Z,27.07
2023-03-02T08:27:02.321Z,29.53
2023-03-02T08:29:31.263Z,28.37
2023-03-02T08:32:00.258Z,30.43
2023-03-02T08:34:28.477Z,27.93
2023-03-02T08:36:57.010Z,29.23
2023-03-02T08:39:25.420Z,30.37
2023-03-02T08:41:55.409Z,27.67
2023-03-02T08:44:23.540Z,30.97
2023-03-02T08:46:52.645Z,29.23
2023-03-02T08:49:21.237Z,30.33
2023-03-02T08:51:53.578Z,33.40
2023-03-02T08:54:22.338Z,31.00
2023-03-02T08:56:51.151Z,30.87
2023-03-02T08:59:21.690Z,31.90
2023-03-02T09:01:49.965Z,31.70
2023-03-02T09:04:18.213Z,30.37
2023-03-02T09:06:47.004Z,31.43
2023-03-02T09:09:16.260Z,31.57
2023-03-02T09:11:44.864Z,31.93
2023-03-02T09:14:13.426Z,31.73
2023-03-02T09:16:43.052Z,30.87
2023-03-02T09:19:12.788Z,34.20
2023-03-02T09:21:40.936Z,31.23
2023-03-02T09:24:09.674Z,31.37
2023-03-02T09:26:39.063Z,31.97
2023-03-02T09:29:07.906Z,30.87
2023-03-02T09:31:37.146Z,31.80
2023-03-02T09:34:07.290Z,29.30
2023-03-02T09:36:35.560Z,32.50
2023-03-02T09:39:08.529Z,32.10
2023-03-02T09:42:12.398Z,31.93
2023-03-02T09:45:33.860Z,30.90
2023-03-02T09:48:13.638Z,30.20
2023-03-02T09:50:53.328Z,31.20
2023-03-02T09:53:45.329Z,30.37
2023-03-02T09:56:17.083Z,31.87
2023-03-02T09:58:54.064Z,30.60
2023-03-02T10:01:33.623Z,31.20
2023-03-02T10:04:10.582Z,30.93
2023-03-02T10:06:40.181Z,30.50
2023-03-02T10:09:10.949Z,29.83
2023-03-02T10:11:55.902Z,28.83
2023-03-02T10:14:28.073Z,29.80
2023-03-02T10:17:09.381Z,32.03
2023-03-02T10:19:44.809Z,29.83
2023-03-02T10:22:20.909Z,30.87
2023-03-02T10:24:57.985Z,31.13
2023-03-02T10:27:32.113Z,31.20
2023-03-02T10:30:06.475Z,30.37
2023-03-02T10:32:38.889Z,31.87
2023-03-02T10:35:17.073Z,30.37
2023-03-02T10:37:46.616Z,31.97
2023-03-02T10:40:32.884Z,29.30
2023-03-02T10:43:02.067Z,30.90
2023-03-02T10:45:32.448Z,30.90
2023-03-02T10:48:04.874Z,29.73
2023-03-02T10:50:33.691Z,30.10
2023-03-02T10:53:05.261Z,32.20
2023-03-02T10:55:35.204Z,31.00
2023-03-02T10:58:06.551Z,29.63
2023-03-02T11:00:36.768Z,29.07
2023-03-02T11:03:07.960Z,30.43
2023-03-02T11:05:37.699Z,30.50
2023-03-02T11:08:10.800Z,31.73
2023-03-02T11:10:42.350Z,31.43
2023-03-02T11:13:19.060Z,31.37
2023-03-02T11:15:49.603Z,31.27
2023-03-02T11:18:26.232Z,30.20
2023-03-02T11:20:58.457Z,31.00
2023-03-02T11:23:45.164Z,32.20
2023-03-02T11:26:21.864Z,27.40
2023-03-02T11:29:00.838Z,30.70
2023-03-02T11:31:37.707Z,32.03
2023-03-02T11:34:29.682Z,31.63
2023-03-02T11:37:13.412Z,31.00
2023-03-02T11:39:59.285Z,31.00
2023-03-02T11:42:31.601Z,31.00
2023-03-02T11:45:03.701Z,31.70
2023-03-02T11:47:33.773Z,30.10
2023-03-02T11:53:01.330Z,28.70
2023-03-02T11:55:35.106Z,30.30
2023-03-02T11:58:05.025Z,27.03
2023-03-02T12:00:35.943Z,27.70
2023-03-02T12:03:07.005Z,28.00
2023-03-02T12:05:37.055Z,28.63
2023-03-02T12:08:07.643Z,28.97
2023-03-02T12:10:40.132Z,26.70
2023-03-02T12:13:16.383Z,29.87
2023-03-02T12:15:45.835Z,28.17
2023-03-02T12:18:29.066Z,25.40
2023-03-02T12:21:02.734Z,26.73
2023-03-02T12:23:31.925Z,25.87
2023-03-02T12:26:08.667Z,26.37
2023-03-02T12:28:39.694Z,25.97
2023-03-02T12:31:11.321Z,26.60
2023-03-02T12:33:44.464Z,26.83
2023-03-02T12:36:16.212Z,27.50
2023-03-02T12:38:51.325Z,28.43
2023-03-02T12:41:35.648Z,27.17
2023-03-02T12:44:17.710Z,27.90
2023-03-02T12:46:47.381Z,26.57
2023-03-02T12:49:36.379Z,26.73
2023-03-02T12:52:24.318Z,29.60
2023-03-02T12:55:02.464Z,29.63
2023-03-02T12:57:32.005Z,28.80
2023-03-02T13:00:03.657Z,28.10
2023-03-02T13:02:33.241Z,28.13
2023-03-02T13:05:03.873Z,29.30
2023-03-02T13:07:37.622Z,29.27
2023-03-02T13:10:10.624Z,29.27
2023-03-02T13:12:46.268Z,29.67
2023-03-02T13:15:17.585Z,28.77
2023-03-02T13:17:53.370Z,29.80
2023-03-02T13:20:23.578Z,30.13
2023-03-02T13:22:51.990Z,30.47
2023-03-02T13:25:25.093Z,29.20
2023-03-02T13:27:55.542Z,28.83
2023-03-02T13:30:28.004Z,28.57
2023-03-02T13:33:01.667Z,28.97
2023-03-02T13:35:31.696Z,27.50
2023-03-02T13:38:04.511Z,29.60
2023-03-02T13:40:41.533Z,28.70
2023-03-02T13:43:31.494Z,27.87
2023-03-02T13:46:01.432Z,28.87
2023-03-02T13:48:30.590Z,27.33
2023-03-02T13:51:01.233Z,29.83
2023-03-02T13:53:34.519Z,27.63
2023-03-02T13:56:02.864Z,27.70
2023-03-02T13:58:38.239Z,28.03
2023-03-02T14:01:07.803Z,26.03
2023-03-02T14:03:35.983Z,27.40
2023-03-02T14:06:06.057Z,29.17
2023-03-02T14:08:34.187Z,28.80
2023-03-02T14:11:04.374Z,26.93
2023-03-02T14:13:38.870Z,27.20
2023-03-02T14:16:07.925Z,29.47
2023-03-02T14:18:40.046Z,28.37
2023-03-02T14:21:14.823Z,29.17
2023-03-02T14:23:43.278Z,28.63
2023-03-02T14:26:28.512Z,28.80
2023-03-02T14:29:05.402Z,28.40
2023-03-02T14:31:34.668Z,27.57
2023-03-02T14:34:03.122Z,28.63
2023-03-02T14:36:33.598Z,28.53
2023-03-02T14:39:04.048Z,28.00
2023-03-02T14:41:38.331Z,27.27
2023-03-02T14:44:12.858Z,27.37
2023-03-02T14:46:41.025Z,29.03
2023-03-02T14:49:09.153Z,27.80
2023-03-02T14:51:40.006Z,28.13
2023-03-02T14:54:13.958Z,28.33
2023-03-02T14:56:43.429Z,27.20
2023-03-02T14:59:14.873Z,27.47
2023-03-02T15:01:44.564Z,28.27
2023-03-02T15:04:12.768Z,28.13
2023-03-02T15:06:43.392Z,27.67
2023-03-02T15:09:12.160Z,27.73
2023-03-02T15:11:40.313Z,28.37
2023-03-02T15:14:08.405Z,28.70
2023-03-02T15:16:37.857Z,30.73
2023-03-02T15:19:06.207Z,27.47
2023-03-02T15:21:34.513Z,30.13
2023-03-02T15:24:04.129Z,30.10
2023-03-02T15:26:32.350Z,28.03
2023-03-02T15:29:00.435Z,28.90
2023-03-02T15:31:29.161Z,28.57
2023-03-02T15:33:58.983Z,29.17
2023-03-02T15:36:27.284Z,30.13
2023-03-02T15:38:55.677Z,30.47
2023-03-02T15:41:23.798Z,30.33
2023-03-02T15:43:52.215Z,28.20
2023-03-02T15:46:20.957Z,30.67
2023-03-02T15:48:49.174Z,27.93
2023-03-02T15:51:18.774Z,26.70
2023-03-02T15:53:47.218Z,28.67
2023-03-02T15:56:17.060Z,29.43
2023-03-02T15:58:48.024Z,28.27
2023-03-02T16:01:17.192Z,28.23
2023-03-02T16:03:46.435Z,29.70
2023-03-02T16:06:15.864Z,28.50
2023-03-02T16:08:45.484Z,29.40
2023-03-02T16:11:18.735Z,28.90
2023-03-02T16:13:47.227Z,28.03
2023-03-02T16:16:15.651Z,29.00
2023-03-02T16:18:43.769Z,28.23
2023-03-02T16:21:14.461Z,26.07
2023-03-02T16:23:42.678Z,29.13
2023-03-02T16:26:15.385Z,30.60
2023-03-02T16:28:44.097Z,30.30
2023-03-02T16:31:14.798Z,28.30
2023-03-02T16:33:43.211Z,28.93
2023-03-02T16:36:12.730Z,27.33
2023-03-02T16:38:41.512Z,28.23
2023-03-02T16:41:15.885Z,26.40
2023-03-02T16:43:46.824Z,30.10
2023-03-02T16:46:15.318Z,27.87
2023-03-02T16:48:44.264Z,28.80
2023-03-02T16:51:12.846Z,29.10
2023-03-02T16:53:41.681Z,28.43
2023-03-02T16:56:10.837Z,26.80
2023-03-02T16:58:41.479Z,30.33
2023-03-02T17:01:11.576Z,28.30
2023-03-02T17:03:39.880Z,26.73
2023-03-02T17:06:09.526Z,27.50
2023-03-02T17:08:38.899Z,31.00
2023-03-02T17:11:07.536Z,31.27
2023-03-02T17:13:35.943Z,31.07
2023-03-02T17:16:06.332Z,36.47
2023-03-02T17:18:34.951Z,36.70
2023-03-02T17:21:04.492Z,37.13
2023-03-02T17:23:32.703Z,42.10
2023-03-02T17:26:00.939Z,40.33
2023-03-02T17:28:29.538Z,39.10
2023-03-02T17:30:58.109Z,39.00
2023-03-02T17:33:29.533Z,38.20
2023-03-02T17:35:57.640Z,37.23
2023-03-02T17:38:25.782Z,39.63
2023-03-02T17:40:53.879Z,40.30
2023-03-02T17:43:22.048Z,40.07
2023-03-02T17:45:50.236Z,37.83
2023-03-02T17:48:20.331Z,39.23
2023-03-02T17:50:49.811Z,37.87
2023-03-02T17:53:17.931Z,40.57
2023-03-02T17:55:46.309Z,43.40
2023-03-02T17:58:15.404Z,43.43
2023-03-02T18:00:43.577Z,45.90
2023-03-02T18:03:11.784Z,41.10
2023-03-02T18:05:39.975Z,40.10
2023-03-02T18:08:09.559Z,38.87
2023-03-02T18:10:37.682Z,38.80
2023-03-02T18:13:05.952Z,39.20
2023-03-02T18:15:34.210Z,36.83
2023-03-02T18:18:02.386Z,36.03
2023-03-02T18:20:30.580Z,38.20
2023-03-02T18:22:59.105Z,38.20
2023-03-02T18:25:29.165Z,35.43
2023-03-02T18:27:57.689Z,32.90
2023-03-02T18:30:26.002Z,30.77
2023-03-02T18:32:54.194Z,30.97
2023-03-02T18:35:22.806Z,28.83
2023-03-02T18:37:51.431Z,28.03
2023-03-02T18:40:20.074Z,29.50
2023-03-02T18:42:49.551Z,26.40
2023-03-02T18:45:22.670Z,27.17
2023-03-02T18:47:50.853Z,25.83
2023-03-02T18:50:19.602Z,29.40
2023-03-02T18:52:47.921Z,30.03
2023-03-02T18:55:16.035Z,29.20
2023-03-02T18:57:44.564Z,34.67
2023-03-02T19:00:18.785Z,34.23
2023-03-02T19:02:47.055Z,33.27
2023-03-02T19:05:15.159Z,32.73
2023-03-02T19:07:43.259Z,35.10
2023-03-02T19:10:12.558Z,36.77
2023-03-02T19:12:40.715Z,44.80
2023-03-02T19:15:10.885Z,44.63
2023-03-02T19:17:42.663Z,45.77
2023-03-02T19:20:15.419Z,42.63
2023-03-02T19:22:44.011Z,38.00
2023-03-02T19:25:13.022Z,33.13
2023-03-02T19:27:41.199Z,31.53
2023-03-02T19:30:15.394Z,29.30
2023-03-02T19:32:44.858Z,26.80
2023-03-02T19:35:17.876Z,27.63
2023-03-02T19:37:46.196Z,25.87
2023-03-02T19:40:17.321Z,28.20
2023-03-02T19:42:46.160Z,28.17
2023-03-02T19:45:17.255Z,26.13
2023-03-02T19:47:47.083Z,25.97
2023-03-02T19:50:17.286Z,25.90
2023-03-02T19:52:45.898Z,25.50
2023-03-02T19:55:15.694Z,30.63
2023-03-02T19:57:43.980Z,33.30
2023-03-02T20:00:16.340Z,36.00
2023-03-02T20:02:46.168Z,34.50
2023-03-02T20:05:14.791Z,35.37
2023-03-02T20:07:43.656Z,35.70
2023-03-02T20:10:14.224Z,36.87
2023-03-02T20:12:42.674Z,37.97
2023-03-02T20:15:11.485Z,35.13
2023-03-02T20:17:39.555Z,38.07
2023-03-02T20:20:11.084Z,36.70
2023-03-02T20:22:39.174Z,41.80
2023-03-02T20:25:08.726Z,40.80
2023-03-02T20:27:36.902Z,35.67
2023-03-02T20:30:07.675Z,37.10
2023-03-02T20:32:35.841Z,30.60
2023-03-02T20:35:04.129Z,29.57
2023-03-02T20:37:33.693Z,23.73
2023-03-02T20:40:02.285Z,26.07
2023-03-02T20:42:33.987Z,24.10
2023-03-02T20:45:02.917Z,28.03
2023-03-02T20:47:31.427Z,32.00
2023-03-02T20:49:59.863Z,34.80
2023-03-02T20:52:28.465Z,33.30
2023-03-02T20:54:58.103Z,32.00
2023-03-02T20:57:26.251Z,30.87
2023-03-02T20:59:54.365Z,26.20
2023-03-02T21:02:23.164Z,27.90
2023-03-02T21:04:51.531Z,25.57
2023-03-02T21:07:19.629Z,26.40
2023-03-02T21:09:48.561Z,27.63
2023-03-02T21:12:18.254Z,27.60
2023-03-02T21:14:46.681Z,25.50
2023-03-02T21:17:15.120Z,28.13
2023-03-02T21:19:43.266Z,25.30
2023-03-02T21:22:11.414Z,27.20
2023-03-02T21:24:39.525Z,26.10
2023-03-02T21:27:08.459Z,25.80
2023-03-02T21:29:38.051Z,24.40
2023-03-02T21:32:07.739Z,26.77
2023-03-02T21:34:38.402Z,27.27
2023-03-02T21:37:07.059Z,28.90
2023-03-02T21:39:35.183Z,32.23
2023-03-02T21:42:03.719Z,34.73
2023-03-02T21:44:31.775Z,33.87
2023-03-02T21:47:01.276Z,28.50
2023-03-02T21:49:29.469Z,28.10
2023-03-02T21:51:57.928Z,27.17
2023-03-02T21:54:26.123Z,27.80
2023-03-02T21:56:54.200Z,25.63
2023-03-02T21:59:22.344Z,27.30
2023-03-02T22:01:50.553Z,25.87
2023-03-02T22:04:20.150Z,26.77
2023-03-02T22:06:48.246Z,24.53
2023-03-02T22:09:16.424Z,25.43
2023-03-02T22:11:45.832Z,27.10
2023-03-02T22:14:16.569Z,26.97
2023-03-02T22:16:47.843Z,28.17
2023-03-02T22:19:25.461Z,29.80
2023-03-02T22:21:55.067Z,28.20
2023-03-02T22:24:25.643Z,27.80
2023-03-02T22:26:59.518Z,27.50
2023-03-02T22:29:30.566Z,26.00
2023-03-02T22:32:07.672Z,23.90
2023-03-02T22:34:37.918Z,23.77
2023-03-02T22:37:12.652Z,23.80
2023-03-02T22:39:42.294Z,23.87
2023-03-02T22:42:14.531Z,23.93
2023-03-02T22:44:43.329Z,25.70
2023-03-02T22:47:16.577Z,24.37
2023-03-02T22:49:46.503Z,25.63
2023-03-02T22:52:17.412Z,24.60
2023-03-02T22:54:46.685Z,23.57
2023-03-02T22:57:32.240Z,24.37
2023-03-02T23:00:31.685Z,24.17
2023-03-02T23:02:59.859Z,24.47
2023-03-02T23:05:31.075Z,25.10
2023-03-02T23:08:15.829Z,25.17
2023-03-02T23:10:44.059Z,26.33
2023-03-02T23:13:14.201Z,22.93
2023-03-02T23:15:42.566Z,23.20
2023-03-02T23:18:18.130Z,25.00
2023-03-02T23:20:47.721Z,23.57
2023-03-02T23:23:16.165Z,20.57
2023-03-02T23:25:44.265Z,21.83
2023-03-02T23:28:12.419Z,22.63
2023-03-02T23:30:40.856Z,25.67
2023-03-02T23:33:09.108Z,27.60
2023-03-02T23:35:37.296Z,28.13
2023-03-02T23:38:06.757Z,28.33
2023-03-02T23:40:35.231Z,27.93
2023-03-02T23:43:03.629Z,27.63
2023-03-02T23:45:31.840Z,26.53
2023-03-02T23:47:59.983Z,23.50
2023-03-02T23:50:28.087Z,24.87
2023-03-02T23:52:56.213Z,23.80
2023-03-02T23:55:25.797Z,23.97
2023-03-02T23:57:53.927Z,26.03
